sensor_id;sensor_type;location;lat;lon;timestamp;P1;durP1;ratioP1;P2;durP2;ratioP2
20870;SDS011;10595;51.218;3.452;2024-01-07T00:01:48;11.17;;;5.70;;
20870;SDS011;10595;51.218;3.452;2024-01-07T00:04:14;9.83;;;6.10;;
20870;SDS011;10595;51.218;3.452;2024-01-07T00:06:41;11.83;;;5.10;;
20870;SDS011;10595;51.218;3.452;2024-01-07T00:09:07;9.20;;;4.67;;
20870;SDS011;10595;51.218;3.452;2024-01-07T00:11:33;7.47;;;5.43;;
20870;SDS011;10595;51.218;3.452;2024-01-07T00:13:59;11.67;;;5.33;;
20870;SDS011;10595;51.218;3.452;2024-01-07T00:16:25;8.97;;;5.37;;
20870;SDS011;10595;51.218;3.452;2024-01-07T00:18:51;7.90;;;5.43;;
20870;SDS011;10595;51.218;3.452;2024-01-07T00:21:17;10.67;;;5.23;;
20870;SDS011;10595;51.218;3.452;2024-01-07T00:23:43;8.23;;;5.50;;
20870;SDS011;10595;51.218;3.452;2024-01-07T00:26:09;7.57;;;5.13;;
20870;SDS011;10595;51.218;3.452;2024-01-07T00:28:35;11.10;;;4.70;;
20870;SDS011;10595;51.218;3.452;2024-01-07T00:31:01;11.67;;;5.07;;
20870;SDS011;10595;51.218;3.452;2024-01-07T00:33:27;10.37;;;4.80;;
20870;SDS011;10595;51.218;3.452;2024-01-07T00:35:53;8.30;;;4.73;;
20870;SDS011;10595;51.218;3.452;2024-01-07T00:38:19;6.57;;;4.40;;
20870;SDS011;10595;51.218;3.452;2024-01-07T00:40:45;7.33;;;4.77;;
20870;SDS011;10595;51.218;3.452;2024-01-07T00:43:11;9.60;;;4.60;;
20870;SDS011;10595;51.218;3.452;2024-01-07T00:45:37;8.13;;;4.77;;
20870;SDS011;10595;51.218;3.452;2024-01-07T00:48:03;5.93;;;4.07;;
20870;SDS011;10595;51.218;3.452;2024-01-07T00:50:29;6.97;;;4.13;;
20870;SDS011;10595;51.218;3.452;2024-01-07T00:52:55;8.07;;;4.57;;
20870;SDS011;10595;51.218;3.452;2024-01-07T00:55:21;4.83;;;3.53;;
20870;SDS011;10595;51.218;3.452;2024-01-07T00:57:48;7.80;;;3.70;;
20870;SDS011;10595;51.218;3.452;2024-01-07T01:00:14;5.47;;;3.40;;
20870;SDS011;10595;51.218;3.452;2024-01-07T01:02:41;5.27;;;3.30;;
20870;SDS011;10595;51.218;3.452;2024-01-07T01:05:07;6.90;;;3.53;;
20870;SDS011;10595;51.218;3.452;2024-01-07T01:07:33;9.37;;;4.10;;
20870;SDS011;10595;51.218;3.452;2024-01-07T01:09:59;5.67;;;3.73;;
20870;SDS011;10595;51.218;3.452;2024-01-07T01:12:25;8.40;;;4.17;;
20870;SDS011;10595;51.218;3.452;2024-01-07T01:14:51;7.37;;;4.03;;
20870;SDS011;10595;51.218;3.452;2024-01-07T01:17:17;6.00;;;3.20;;
20870;SDS011;10595;51.218;3.452;2024-01-07T01:19:43;5.10;;;3.40;;
20870;SDS011;10595;51.218;3.452;2024-01-07T01:22:09;5.50;;;3.30;;
20870;SDS011;10595;51.218;3.452;2024-01-07T01:24:35;6.33;;;3.70;;
20870;SDS011;10595;51.218;3.452;2024-01-07T01:27:01;5.67;;;3.53;;
20870;SDS011;10595;51.218;3.452;2024-01-07T01:29:27;6.23;;;3.30;;
20870;SDS011;10595;51.218;3.452;2024-01-07T01:31:53;7.17;;;3.57;;
20870;SDS011;10595;51.218;3.452;2024-01-07T01:34:19;4.93;;;2.87;;
20870;SDS011;10595;51.218;3.452;2024-01-07T01:36:45;5.77;;;3.30;;
20870;SDS011;10595;51.218;3.452;2024-01-07T01:39:11;11.67;;;3.17;;
20870;SDS011;10595;51.218;3.452;2024-01-07T01:41:37;8.43;;;3.97;;
20870;SDS011;10595;51.218;3.452;2024-01-07T01:44:04;7.07;;;3.00;;
20870;SDS011;10595;51.218;3.452;2024-01-07T01:46:30;8.20;;;4.10;;
20870;SDS011;10595;51.218;3.452;2024-01-07T01:48:56;6.43;;;4.00;;
20870;SDS011;10595;51.218;3.452;2024-01-07T01:51:23;9.47;;;4.13;;
20870;SDS011;10595;51.218;3.452;2024-01-07T01:53:49;7.10;;;4.50;;
20870;SDS011;10595;51.218;3.452;2024-01-07T01:56:16;10.97;;;5.13;;
20870;SDS011;10595;51.218;3.452;2024-01-07T01:58:42;10.90;;;5.00;;
20870;SDS011;10595;51.218;3.452;2024-01-07T02:01:09;10.73;;;5.30;;
20870;SDS011;10595;51.218;3.452;2024-01-07T02:03:35;9.30;;;4.90;;
20870;SDS011;10595;51.218;3.452;2024-01-07T02:06:01;8.77;;;4.87;;
20870;SDS011;10595;51.218;3.452;2024-01-07T02:08:27;8.07;;;4.70;;
20870;SDS011;10595;51.218;3.452;2024-01-07T02:10:53;9.97;;;5.80;;
20870;SDS011;10595;51.218;3.452;2024-01-07T02:13:19;9.13;;;4.90;;
20870;SDS011;10595;51.218;3.452;2024-01-07T02:15:45;7.43;;;4.60;;
20870;SDS011;10595;51.218;3.452;2024-01-07T02:18:11;9.63;;;5.47;;
20870;SDS011;10595;51.218;3.452;2024-01-07T02:20:37;9.87;;;4.83;;
20870;SDS011;10595;51.218;3.452;2024-01-07T02:23:03;11.00;;;5.00;;
20870;SDS011;10595;51.218;3.452;2024-01-07T02:25:34;11.47;;;4.63;;
20870;SDS011;10595;51.218;3.452;2024-01-07T02:28:00;9.73;;;5.47;;
20870;SDS011;10595;51.218;3.452;2024-01-07T02:30:26;8.80;;;5.33;;
20870;SDS011;10595;51.218;3.452;2024-01-07T02:32:52;9.27;;;5.53;;
20870;SDS011;10595;51.218;3.452;2024-01-07T02:35:18;9.43;;;5.60;;
20870;SDS011;10595;51.218;3.452;2024-01-07T02:37:44;12.07;;;5.83;;
20870;SDS011;10595;51.218;3.452;2024-01-07T02:40:10;9.67;;;6.00;;
20870;SDS011;10595;51.218;3.452;2024-01-07T02:42:36;11.63;;;5.93;;
20870;SDS011;10595;51.218;3.452;2024-01-07T02:45:02;10.33;;;6.23;;
20870;SDS011;10595;51.218;3.452;2024-01-07T02:47:28;10.50;;;6.33;;
20870;SDS011;10595;51.218;3.452;2024-01-07T02:49:54;10.27;;;6.47;;
20870;SDS011;10595;51.218;3.452;2024-01-07T02:52:20;10.03;;;6.27;;
20870;SDS011;10595;51.218;3.452;2024-01-07T02:54:46;13.53;;;7.03;;
20870;SDS011;10595;51.218;3.452;2024-01-07T02:57:12;15.97;;;7.10;;
20870;SDS011;10595;51.218;3.452;2024-01-07T02:59:38;12.67;;;7.33;;
20870;SDS011;10595;51.218;3.452;2024-01-07T03:02:04;11.87;;;7.13;;
20870;SDS011;10595;51.218;3.452;2024-01-07T03:04:30;13.93;;;7.73;;
20870;SDS011;10595;51.218;3.452;2024-01-07T03:06:56;11.90;;;7.80;;
20870;SDS011;10595;51.218;3.452;2024-01-07T03:09:22;12.77;;;7.93;;
20870;SDS011;10595;51.218;3.452;2024-01-07T03:11:48;11.30;;;7.77;;
20870;SDS011;10595;51.218;3.452;2024-01-07T03:14:14;12.93;;;8.27;;
20870;SDS011;10595;51.218;3.452;2024-01-07T03:16:42;16.43;;;8.40;;
20870;SDS011;10595;51.218;3.452;2024-01-07T03:19:08;14.50;;;8.83;;
20870;SDS011;10595;51.218;3.452;2024-01-07T03:21:34;12.53;;;8.37;;
20870;SDS011;10595;51.218;3.452;2024-01-07T03:24:00;12.50;;;8.40;;
20870;SDS011;10595;51.218;3.452;2024-01-07T03:26:28;13.67;;;9.83;;
20870;SDS011;10595;51.218;3.452;2024-01-07T03:28:55;13.60;;;8.50;;
20870;SDS011;10595;51.218;3.452;2024-01-07T03:31:24;14.20;;;10.07;;
20870;SDS011;10595;51.218;3.452;2024-01-07T03:33:50;15.13;;;9.50;;
20870;SDS011;10595;51.218;3.452;2024-01-07T03:36:17;15.80;;;9.50;;
20870;SDS011;10595;51.218;3.452;2024-01-07T03:38:43;14.80;;;9.73;;
20870;SDS011;10595;51.218;3.452;2024-01-07T03:41:09;14.77;;;9.93;;
20870;SDS011;10595;51.218;3.452;2024-01-07T03:43:35;18.03;;;10.60;;
20870;SDS011;10595;51.218;3.452;2024-01-07T03:46:01;17.10;;;11.00;;
20870;SDS011;10595;51.218;3.452;2024-01-07T03:48:27;14.57;;;10.40;;
20870;SDS011;10595;51.218;3.452;2024-01-07T03:50:52;16.23;;;9.80;;
20870;SDS011;10595;51.218;3.452;2024-01-07T03:53:19;17.07;;;10.70;;
20870;SDS011;10595;51.218;3.452;2024-01-07T03:55:45;14.87;;;10.67;;
20870;SDS011;10595;51.218;3.452;2024-01-07T03:58:11;17.13;;;11.07;;
20870;SDS011;10595;51.218;3.452;2024-01-07T04:00:37;15.43;;;11.13;;
20870;SDS011;10595;51.218;3.452;2024-01-07T04:03:03;16.87;;;11.47;;
20870;SDS011;10595;51.218;3.452;2024-01-07T04:05:29;17.90;;;11.47;;
20870;SDS011;10595;51.218;3.452;2024-01-07T04:07:55;16.40;;;10.93;;
20870;SDS011;10595;51.218;3.452;2024-01-07T04:10:21;18.10;;;11.23;;
20870;SDS011;10595;51.218;3.452;2024-01-07T04:12:47;15.40;;;10.87;;
20870;SDS011;10595;51.218;3.452;2024-01-07T04:15:13;15.90;;;11.00;;
20870;SDS011;10595;51.218;3.452;2024-01-07T04:17:39;17.83;;;11.07;;
20870;SDS011;10595;51.218;3.452;2024-01-07T04:20:05;15.30;;;10.70;;
20870;SDS011;10595;51.218;3.452;2024-01-07T04:22:32;15.40;;;10.40;;
20870;SDS011;10595;51.218;3.452;2024-01-07T04:24:57;14.13;;;10.33;;
20870;SDS011;10595;51.218;3.452;2024-01-07T04:27:23;14.50;;;10.30;;
20870;SDS011;10595;51.218;3.452;2024-01-07T04:29:50;16.23;;;11.03;;
20870;SDS011;10595;51.218;3.452;2024-01-07T04:32:16;15.77;;;11.33;;
20870;SDS011;10595;51.218;3.452;2024-01-07T04:34:42;15.67;;;11.27;;
20870;SDS011;10595;51.218;3.452;2024-01-07T04:37:08;15.70;;;11.10;;
20870;SDS011;10595;51.218;3.452;2024-01-07T04:39:34;16.20;;;11.40;;
20870;SDS011;10595;51.218;3.452;2024-01-07T04:42:00;17.17;;;12.80;;
20870;SDS011;10595;51.218;3.452;2024-01-07T04:44:26;18.97;;;13.00;;
20870;SDS011;10595;51.218;3.452;2024-01-07T04:46:52;18.60;;;13.77;;
20870;SDS011;10595;51.218;3.452;2024-01-07T04:49:18;19.80;;;14.23;;
20870;SDS011;10595;51.218;3.452;2024-01-07T04:51:44;18.37;;;12.83;;
20870;SDS011;10595;51.218;3.452;2024-01-07T04:54:10;21.70;;;14.57;;
20870;SDS011;10595;51.218;3.452;2024-01-07T04:56:36;21.00;;;14.17;;
20870;SDS011;10595;51.218;3.452;2024-01-07T04:59:02;19.73;;;13.87;;
20870;SDS011;10595;51.218;3.452;2024-01-07T05:01:28;22.27;;;15.63;;
20870;SDS011;10595;51.218;3.452;2024-01-07T05:03:54;21.77;;;15.00;;
20870;SDS011;10595;51.218;3.452;2024-01-07T05:06:20;24.33;;;16.20;;
20870;SDS011;10595;51.218;3.452;2024-01-07T05:08:46;22.47;;;15.57;;
20870;SDS011;10595;51.218;3.452;2024-01-07T05:11:12;22.87;;;14.87;;
20870;SDS011;10595;51.218;3.452;2024-01-07T05:13:38;22.07;;;15.67;;
20870;SDS011;10595;51.218;3.452;2024-01-07T05:16:05;22.20;;;16.53;;
20870;SDS011;10595;51.218;3.452;2024-01-07T05:18:31;24.33;;;17.20;;
20870;SDS011;10595;51.218;3.452;2024-01-07T05:20:57;22.27;;;16.37;;
20870;SDS011;10595;51.218;3.452;2024-01-07T05:23:23;22.43;;;15.60;;
20870;SDS011;10595;51.218;3.452;2024-01-07T05:25:49;23.30;;;16.27;;
20870;SDS011;10595;51.218;3.452;2024-01-07T05:28:15;23.40;;;17.00;;
20870;SDS011;10595;51.218;3.452;2024-01-07T05:30:44;25.10;;;17.27;;
20870;SDS011;10595;51.218;3.452;2024-01-07T05:33:11;24.27;;;17.40;;
20870;SDS011;10595;51.218;3.452;2024-01-07T05:35:37;27.30;;;17.60;;
20870;SDS011;10595;51.218;3.452;2024-01-07T05:38:03;25.87;;;17.23;;
20870;SDS011;10595;51.218;3.452;2024-01-07T05:40:29;24.07;;;16.43;;
20870;SDS011;10595;51.218;3.452;2024-01-07T05:42:55;26.93;;;18.10;;
20870;SDS011;10595;51.218;3.452;2024-01-07T05:45:21;26.20;;;17.97;;
20870;SDS011;10595;51.218;3.452;2024-01-07T05:47:47;25.80;;;17.53;;
20870;SDS011;10595;51.218;3.452;2024-01-07T05:50:13;28.80;;;19.57;;
20870;SDS011;10595;51.218;3.452;2024-01-07T05:52:41;29.40;;;19.73;;
20870;SDS011;10595;51.218;3.452;2024-01-07T05:55:07;27.00;;;19.07;;
20870;SDS011;10595;51.218;3.452;2024-01-07T05:57:33;33.23;;;20.80;;
20870;SDS011;10595;51.218;3.452;2024-01-07T05:59:59;30.90;;;20.93;;
20870;SDS011;10595;51.218;3.452;2024-01-07T06:02:25;34.60;;;22.20;;
20870;SDS011;10595;51.218;3.452;2024-01-07T06:04:51;32.60;;;20.93;;
20870;SDS011;10595;51.218;3.452;2024-01-07T06:07:17;32.53;;;21.03;;
20870;SDS011;10595;51.218;3.452;2024-01-07T06:09:43;31.07;;;21.27;;
20870;SDS011;10595;51.218;3.452;2024-01-07T06:12:09;31.73;;;19.50;;
20870;SDS011;10595;51.218;3.452;2024-01-07T06:14:35;27.70;;;20.47;;
20870;SDS011;10595;51.218;3.452;2024-01-07T06:17:01;32.33;;;20.80;;
20870;SDS011;10595;51.218;3.452;2024-01-07T06:19:27;33.30;;;20.80;;
20870;SDS011;10595;51.218;3.452;2024-01-07T06:21:53;33.87;;;22.37;;
20870;SDS011;10595;51.218;3.452;2024-01-07T06:24:19;35.97;;;23.63;;
20870;SDS011;10595;51.218;3.452;2024-01-07T06:26:45;34.80;;;22.63;;
20870;SDS011;10595;51.218;3.452;2024-01-07T06:29:11;29.13;;;19.83;;
20870;SDS011;10595;51.218;3.452;2024-01-07T06:31:42;32.50;;;20.97;;
20870;SDS011;10595;51.218;3.452;2024-01-07T06:34:09;29.20;;;19.87;;
20870;SDS011;10595;51.218;3.452;2024-01-07T06:36:38;30.67;;;21.57;;
20870;SDS011;10595;51.218;3.452;2024-01-07T06:39:04;30.97;;;20.90;;
20870;SDS011;10595;51.218;3.452;2024-01-07T06:41:30;31.70;;;21.00;;
20870;SDS011;10595;51.218;3.452;2024-01-07T06:43:56;35.03;;;23.17;;
20870;SDS011;10595;51.218;3.452;2024-01-07T06:46:22;33.37;;;22.37;;
20870;SDS011;10595;51.218;3.452;2024-01-07T06:48:48;33.73;;;22.20;;
20870;SDS011;10595;51.218;3.452;2024-01-07T06:51:14;31.90;;;21.80;;
20870;SDS011;10595;51.218;3.452;2024-01-07T06:53:40;25.90;;;18.00;;
20870;SDS011;10595;51.218;3.452;2024-01-07T06:56:06;31.83;;;20.43;;
20870;SDS011;10595;51.218;3.452;2024-01-07T06:58:32;30.40;;;20.23;;
20870;SDS011;10595;51.218;3.452;2024-01-07T07:00:58;26.80;;;19.03;;
20870;SDS011;10595;51.218;3.452;2024-01-07T07:03:24;29.17;;;19.27;;
20870;SDS011;10595;51.218;3.452;2024-01-07T07:05:50;28.47;;;19.53;;
20870;SDS011;10595;51.218;3.452;2024-01-07T07:08:16;29.20;;;20.27;;
20870;SDS011;10595;51.218;3.452;2024-01-07T07:10:42;30.17;;;19.40;;
20870;SDS011;10595;51.218;3.452;2024-01-07T07:13:08;31.07;;;20.80;;
20870;SDS011;10595;51.218;3.452;2024-01-07T07:15:34;29.17;;;19.70;;
20870;SDS011;10595;51.218;3.452;2024-01-07T07:18:01;31.13;;;19.57;;
20870;SDS011;10595;51.218;3.452;2024-01-07T07:20:27;28.10;;;19.77;;
20870;SDS011;10595;51.218;3.452;2024-01-07T07:22:53;28.83;;;18.67;;
20870;SDS011;10595;51.218;3.452;2024-01-07T07:25:19;29.70;;;19.40;;
20870;SDS011;10595;51.218;3.452;2024-01-07T07:27:44;27.13;;;18.67;;
20870;SDS011;10595;51.218;3.452;2024-01-07T07:30:11;31.73;;;19.90;;
20870;SDS011;10595;51.218;3.452;2024-01-07T07:32:38;31.00;;;19.10;;
20870;SDS011;10595;51.218;3.452;2024-01-07T07:35:05;31.83;;;20.37;;
20870;SDS011;10595;51.218;3.452;2024-01-07T07:37:32;32.50;;;21.07;;
20870;SDS011;10595;51.218;3.452;2024-01-07T07:39:58;32.33;;;21.33;;
20870;SDS011;10595;51.218;3.452;2024-01-07T07:42:24;31.23;;;21.33;;
20870;SDS011;10595;51.218;3.452;2024-01-07T07:44:50;35.23;;;22.80;;
20870;SDS011;10595;51.218;3.452;2024-01-07T07:47:16;33.80;;;20.97;;
20870;SDS011;10595;51.218;3.452;2024-01-07T07:49:42;33.30;;;21.93;;
20870;SDS011;10595;51.218;3.452;2024-01-07T07:52:08;33.73;;;21.27;;
20870;SDS011;10595;51.218;3.452;2024-01-07T07:54:36;33.93;;;22.60;;
20870;SDS011;10595;51.218;3.452;2024-01-07T07:57:03;33.07;;;20.03;;
20870;SDS011;10595;51.218;3.452;2024-01-07T07:59:29;28.27;;;19.63;;
20870;SDS011;10595;51.218;3.452;2024-01-07T08:01:55;27.37;;;18.70;;
20870;SDS011;10595;51.218;3.452;2024-01-07T08:04:21;24.77;;;17.53;;
20870;SDS011;10595;51.218;3.452;2024-01-07T08:06:47;28.77;;;18.47;;
20870;SDS011;10595;51.218;3.452;2024-01-07T08:09:13;29.50;;;18.73;;
20870;SDS011;10595;51.218;3.452;2024-01-07T08:11:39;27.73;;;18.43;;
20870;SDS011;10595;51.218;3.452;2024-01-07T08:14:05;27.97;;;18.00;;
20870;SDS011;10595;51.218;3.452;2024-01-07T08:16:32;34.33;;;22.50;;
20870;SDS011;10595;51.218;3.452;2024-01-07T08:19:00;30.83;;;20.27;;
20870;SDS011;10595;51.218;3.452;2024-01-07T08:21:27;28.50;;;17.83;;
20870;SDS011;10595;51.218;3.452;2024-01-07T08:23:53;26.20;;;16.87;;
20870;SDS011;10595;51.218;3.452;2024-01-07T08:26:19;24.77;;;16.07;;
20870;SDS011;10595;51.218;3.452;2024-01-07T08:28:45;23.33;;;15.97;;
20870;SDS011;10595;51.218;3.452;2024-01-07T08:31:11;24.57;;;15.53;;
20870;SDS011;10595;51.218;3.452;2024-01-07T08:33:37;26.33;;;16.80;;
20870;SDS011;10595;51.218;3.452;2024-01-07T08:36:04;25.57;;;16.57;;
20870;SDS011;10595;51.218;3.452;2024-01-07T08:38:30;25.20;;;16.43;;
20870;SDS011;10595;51.218;3.452;2024-01-07T08:40:56;26.27;;;16.67;;
20870;SDS011;10595;51.218;3.452;2024-01-07T08:43:22;25.67;;;16.03;;
20870;SDS011;10595;51.218;3.452;2024-01-07T08:45:49;26.23;;;16.47;;
20870;SDS011;10595;51.218;3.452;2024-01-07T08:48:15;31.10;;;18.63;;
20870;SDS011;10595;51.218;3.452;2024-01-07T08:50:41;29.33;;;18.40;;
20870;SDS011;10595;51.218;3.452;2024-01-07T08:53:07;31.43;;;19.63;;
20870;SDS011;10595;51.218;3.452;2024-01-07T08:55:33;29.60;;;17.67;;
20870;SDS011;10595;51.218;3.452;2024-01-07T08:57:59;32.13;;;18.00;;
20870;SDS011;10595;51.218;3.452;2024-01-07T09:00:25;29.53;;;18.43;;
20870;SDS011;10595;51.218;3.452;2024-01-07T09:02:55;25.53;;;17.27;;
20870;SDS011;10595;51.218;3.452;2024-01-07T09:05:22;28.53;;;18.13;;
20870;SDS011;10595;51.218;3.452;2024-01-07T09:07:49;25.63;;;16.67;;
20870;SDS011;10595;51.218;3.452;2024-01-07T09:10:15;27.43;;;16.17;;
20870;SDS011;10595;51.218;3.452;2024-01-07T09:12:41;32.37;;;18.47;;
20870;SDS011;10595;51.218;3.452;2024-01-07T09:15:07;29.30;;;17.17;;
20870;SDS011;10595;51.218;3.452;2024-01-07T09:17:37;27.07;;;17.23;;
20870;SDS011;10595;51.218;3.452;2024-01-07T09:20:03;26.53;;;16.50;;
20870;SDS011;10595;51.218;3.452;2024-01-07T09:22:33;27.20;;;16.83;;
20870;SDS011;10595;51.218;3.452;2024-01-07T09:25:00;28.47;;;17.00;;
20870;SDS011;10595;51.218;3.452;2024-01-07T09:27:26;25.47;;;16.77;;
20870;SDS011;10595;51.218;3.452;2024-01-07T09:29:52;25.80;;;16.27;;
20870;SDS011;10595;51.218;3.452;2024-01-07T09:32:18;27.17;;;17.57;;
20870;SDS011;10595;51.218;3.452;2024-01-07T09:34:44;26.30;;;17.27;;
20870;SDS011;10595;51.218;3.452;2024-01-07T09:37:10;27.37;;;17.63;;
20870;SDS011;10595;51.218;3.452;2024-01-07T09:39:39;27.57;;;16.67;;
20870;SDS011;10595;51.218;3.452;2024-01-07T09:42:10;33.97;;;18.47;;
20870;SDS011;10595;51.218;3.452;2024-01-07T09:44:37;34.33;;;20.20;;
20870;SDS011;10595;51.218;3.452;2024-01-07T09:47:04;34.87;;;20.80;;
20870;SDS011;10595;51.218;3.452;2024-01-07T09:49:32;30.93;;;18.23;;
20870;SDS011;10595;51.218;3.452;2024-01-07T09:51:59;26.70;;;17.43;;
20870;SDS011;10595;51.218;3.452;2024-01-07T09:54:26;25.23;;;16.60;;
20870;SDS011;10595;51.218;3.452;2024-01-07T09:56:58;28.03;;;17.70;;
20870;SDS011;10595;51.218;3.452;2024-01-07T09:59:27;26.17;;;17.20;;
20870;SDS011;10595;51.218;3.452;2024-01-07T10:01:53;27.57;;;16.90;;
20870;SDS011;10595;51.218;3.452;2024-01-07T10:04:19;25.00;;;15.83;;
20870;SDS011;10595;51.218;3.452;2024-01-07T10:06:45;26.23;;;16.90;;
20870;SDS011;10595;51.218;3.452;2024-01-07T10:09:11;24.90;;;16.03;;
20870;SDS011;10595;51.218;3.452;2024-01-07T10:11:38;23.17;;;16.30;;
20870;SDS011;10595;51.218;3.452;2024-01-07T10:14:04;27.40;;;16.87;;
20870;SDS011;10595;51.218;3.452;2024-01-07T10:16:30;26.70;;;16.90;;
20870;SDS011;10595;51.218;3.452;2024-01-07T10:18:58;26.30;;;16.53;;
20870;SDS011;10595;51.218;3.452;2024-01-07T10:21:24;23.93;;;16.37;;
20870;SDS011;10595;51.218;3.452;2024-01-07T10:23:50;23.67;;;15.73;;
20870;SDS011;10595;51.218;3.452;2024-01-07T10:26:16;29.07;;;17.33;;
20870;SDS011;10595;51.218;3.452;2024-01-07T10:28:42;27.90;;;17.13;;
20870;SDS011;10595;51.218;3.452;2024-01-07T10:31:09;29.33;;;18.57;;
20870;SDS011;10595;51.218;3.452;2024-01-07T10:33:35;37.47;;;19.80;;
20870;SDS011;10595;51.218;3.452;2024-01-07T10:36:01;28.37;;;17.03;;
20870;SDS011;10595;51.218;3.452;2024-01-07T10:38:30;28.47;;;18.17;;
20870;SDS011;10595;51.218;3.452;2024-01-07T10:40:58;28.13;;;18.33;;
20870;SDS011;10595;51.218;3.452;2024-01-07T10:43:26;30.40;;;19.10;;
20870;SDS011;10595;51.218;3.452;2024-01-07T10:45:54;32.20;;;19.33;;
20870;SDS011;10595;51.218;3.452;2024-01-07T10:48:20;34.17;;;20.20;;
20870;SDS011;10595;51.218;3.452;2024-01-07T10:50:47;36.00;;;21.13;;
20870;SDS011;10595;51.218;3.452;2024-01-07T10:53:20;30.83;;;19.77;;
20870;SDS011;10595;51.218;3.452;2024-01-07T10:56:00;36.37;;;20.87;;
20870;SDS011;10595;51.218;3.452;2024-01-07T10:58:26;33.73;;;19.80;;
20870;SDS011;10595;51.218;3.452;2024-01-07T11:00:52;29.87;;;19.10;;
20870;SDS011;10595;51.218;3.452;2024-01-07T11:06:49;27.90;;;17.90;;
20870;SDS011;10595;51.218;3.452;2024-01-07T11:08:58;27.40;;;17.20;;
20870;SDS011;10595;51.218;3.452;2024-01-07T11:11:32;28.47;;;17.50;;
20870;SDS011;10595;51.218;3.452;2024-01-07T11:14:00;30.77;;;19.20;;
20870;SDS011;10595;51.218;3.452;2024-01-07T11:16:48;23.17;;;15.53;;
20870;SDS011;10595;51.218;3.452;2024-01-07T11:19:13;24.90;;;16.27;;
20870;SDS011;10595;51.218;3.452;2024-01-07T11:21:39;25.77;;;16.80;;
20870;SDS011;10595;51.218;3.452;2024-01-07T11:24:05;25.20;;;15.90;;
20870;SDS011;10595;51.218;3.452;2024-01-07T11:26:31;23.70;;;16.00;;
20870;SDS011;10595;51.218;3.452;2024-01-07T11:28:58;23.87;;;15.70;;
20870;SDS011;10595;51.218;3.452;2024-01-07T11:34:05;25.43;;;15.17;;
20870;SDS011;10595;51.218;3.452;2024-01-07T11:36:31;24.90;;;16.10;;
20870;SDS011;10595;51.218;3.452;2024-01-07T11:39:00;24.97;;;15.60;;
20870;SDS011;10595;51.218;3.452;2024-01-07T11:41:27;23.80;;;14.87;;
20870;SDS011;10595;51.218;3.452;2024-01-07T11:43:55;23.93;;;15.93;;
20870;SDS011;10595;51.218;3.452;2024-01-07T11:46:22;24.87;;;16.50;;
20870;SDS011;10595;51.218;3.452;2024-01-07T11:48:50;23.57;;;15.93;;
20870;SDS011;10595;51.218;3.452;2024-01-07T11:51:16;26.70;;;16.20;;
20870;SDS011;10595;51.218;3.452;2024-01-07T11:53:42;26.20;;;16.63;;
20870;SDS011;10595;51.218;3.452;2024-01-07T11:56:08;27.97;;;17.17;;
20870;SDS011;10595;51.218;3.452;2024-01-07T11:58:34;31.00;;;17.53;;
20870;SDS011;10595;51.218;3.452;2024-01-07T12:01:01;27.07;;;16.87;;
20870;SDS011;10595;51.218;3.452;2024-01-07T12:03:28;27.70;;;18.27;;
20870;SDS011;10595;51.218;3.452;2024-01-07T12:05:54;30.40;;;16.90;;
20870;SDS011;10595;51.218;3.452;2024-01-07T12:08:20;24.77;;;16.10;;
20870;SDS011;10595;51.218;3.452;2024-01-07T12:10:46;27.83;;;17.47;;
20870;SDS011;10595;51.218;3.452;2024-01-07T12:13:13;24.83;;;16.27;;
20870;SDS011;10595;51.218;3.452;2024-01-07T12:15:39;26.40;;;16.73;;
20870;SDS011;10595;51.218;3.452;2024-01-07T12:18:05;25.80;;;16.20;;
20870;SDS011;10595;51.218;3.452;2024-01-07T12:20:31;23.97;;;15.23;;
20870;SDS011;10595;51.218;3.452;2024-01-07T12:23:05;27.93;;;17.97;;
20870;SDS011;10595;51.218;3.452;2024-01-07T12:25:31;24.87;;;15.90;;
20870;SDS011;10595;51.218;3.452;2024-01-07T12:27:57;26.93;;;16.33;;
20870;SDS011;10595;51.218;3.452;2024-01-07T12:30:24;26.57;;;15.90;;
20870;SDS011;10595;51.218;3.452;2024-01-07T12:32:54;25.07;;;17.10;;
20870;SDS011;10595;51.218;3.452;2024-01-07T12:35:20;24.93;;;16.23;;
20870;SDS011;10595;51.218;3.452;2024-01-07T12:37:47;26.47;;;16.43;;
20870;SDS011;10595;51.218;3.452;2024-01-07T12:40:14;25.03;;;16.77;;
20870;SDS011;10595;51.218;3.452;2024-01-07T12:42:40;24.03;;;14.97;;
20870;SDS011;10595;51.218;3.452;2024-01-07T12:45:10;22.30;;;13.93;;
20870;SDS011;10595;51.218;3.452;2024-01-07T12:47:37;26.37;;;17.40;;
20870;SDS011;10595;51.218;3.452;2024-01-07T12:50:03;24.93;;;16.53;;
20870;SDS011;10595;51.218;3.452;2024-01-07T12:52:29;28.03;;;16.97;;
20870;SDS011;10595;51.218;3.452;2024-01-07T12:54:55;26.77;;;17.93;;
20870;SDS011;10595;51.218;3.452;2024-01-07T12:57:22;27.57;;;16.60;;
20870;SDS011;10595;51.218;3.452;2024-01-07T12:59:48;28.13;;;18.10;;
20870;SDS011;10595;51.218;3.452;2024-01-07T13:02:14;26.70;;;16.97;;
20870;SDS011;10595;51.218;3.452;2024-01-07T13:04:40;28.90;;;17.20;;
20870;SDS011;10595;51.218;3.452;2024-01-07T13:07:06;31.67;;;19.10;;
20870;SDS011;10595;51.218;3.452;2024-01-07T13:09:32;33.37;;;20.93;;
20870;SDS011;10595;51.218;3.452;2024-01-07T13:11:58;29.57;;;18.60;;
20870;SDS011;10595;51.218;3.452;2024-01-07T13:14:24;29.57;;;18.47;;
20870;SDS011;10595;51.218;3.452;2024-01-07T13:16:50;26.90;;;17.90;;
20870;SDS011;10595;51.218;3.452;2024-01-07T13:19:17;31.03;;;20.47;;
20870;SDS011;10595;51.218;3.452;2024-01-07T13:21:43;29.40;;;18.87;;
20870;SDS011;10595;51.218;3.452;2024-01-07T13:24:10;23.47;;;16.43;;
20870;SDS011;10595;51.218;3.452;2024-01-07T13:26:36;24.77;;;16.60;;
20870;SDS011;10595;51.218;3.452;2024-01-07T13:29:02;26.57;;;17.83;;
20870;SDS011;10595;51.218;3.452;2024-01-07T13:31:29;27.87;;;18.13;;
20870;SDS011;10595;51.218;3.452;2024-01-07T13:33:55;24.40;;;16.73;;
20870;SDS011;10595;51.218;3.452;2024-01-07T13:36:21;29.83;;;20.33;;
20870;SDS011;10595;51.218;3.452;2024-01-07T13:38:47;25.73;;;17.77;;
20870;SDS011;10595;51.218;3.452;2024-01-07T13:41:15;20.57;;;15.30;;
20870;SDS011;10595;51.218;3.452;2024-01-07T13:43:42;20.40;;;14.63;;
20870;SDS011;10595;51.218;3.452;2024-01-07T13:46:08;25.33;;;16.03;;
20870;SDS011;10595;51.218;3.452;2024-01-07T13:48:34;22.90;;;16.27;;
20870;SDS011;10595;51.218;3.452;2024-01-07T13:51:00;22.73;;;16.33;;
20870;SDS011;10595;51.218;3.452;2024-01-07T13:53:27;25.93;;;16.77;;
20870;SDS011;10595;51.218;3.452;2024-01-07T13:55:54;27.67;;;15.90;;
20870;SDS011;10595;51.218;3.452;2024-01-07T13:58:20;33.47;;;19.13;;
20870;SDS011;10595;51.218;3.452;2024-01-07T14:00:48;28.23;;;16.70;;
20870;SDS011;10595;51.218;3.452;2024-01-07T14:03:14;28.17;;;16.70;;
20870;SDS011;10595;51.218;3.452;2024-01-07T14:05:40;44.40;;;21.20;;
20870;SDS011;10595;51.218;3.452;2024-01-07T14:08:06;39.17;;;19.87;;
20870;SDS011;10595;51.218;3.452;2024-01-07T14:10:32;35.80;;;19.43;;
20870;SDS011;10595;51.218;3.452;2024-01-07T14:12:58;26.23;;;16.10;;
20870;SDS011;10595;51.218;3.452;2024-01-07T14:15:24;25.27;;;15.27;;
20870;SDS011;10595;51.218;3.452;2024-01-07T14:17:51;28.87;;;18.10;;
20870;SDS011;10595;51.218;3.452;2024-01-07T14:20:17;30.87;;;17.90;;
20870;SDS011;10595;51.218;3.452;2024-01-07T14:22:43;25.50;;;16.20;;
20870;SDS011;10595;51.218;3.452;2024-01-07T14:25:09;25.00;;;16.07;;
20870;SDS011;10595;51.218;3.452;2024-01-07T14:27:35;22.10;;;15.30;;